Nearby METAR Reports

Meteorological Terminal Air Report (METAR)

K3I2 - Pt Pleasant, West Virginia, USA
Distance from station: S 11mi, 18km
Updated: Mon, 18-Dec-2017 3:35am EST
Overcast
Overcast
 Wind from SSW
Wind: SSW 3 mph , 6 km/h
Temperature: 41°F , 5°C
Dew Point: 39°F , 4°C
Humidity: 93%
Barometer: 30.15 inHg , 1021 hPa
Clouds: Overcast
Visibility: 10 miles , 16 km
Cloud details: Overcast 1500 ft
2017/12/18 08:35 K3I2 180835Z AUTO 21003KT 10SM OVC015 05/04 A3015 RMK AO2 T00530035
KUNI - Athens, Ohio, USA
Distance from station: NW 13mi, 21km
Updated: Mon, 18-Dec-2017 3:35am EST
Overcast
Overcast
 Wind from SW
Wind: SW 6 mph , 9 km/h
Temperature: 41°F , 5°C
Wind Chill: 37°F , 3°C
Dew Point: 39°F , 4°C
Humidity: 93%
Barometer: 30.12 inHg , 1020 hPa
Clouds: Overcast
Visibility: 10 miles , 16 km
Cloud details: Mostly cloudy 1200 ft
Overcast 2900 ft
2017/12/18 08:35 KUNI 180835Z AUTO 22005KT 10SM BKN012 OVC029 05/04 A3012 RMK AO2 T00450035
 
KPKB - Parkersburg, West Virginia, USA
Distance from station: ENE 40mi, 65km
Updated: Mon, 18-Dec-2017 2:53am EST
Overcast
Overcast
 Wind from SSW
Wind: SSW 5 mph , 7 km/h
Temperature: 41°F , 5°C
Wind Chill: 38°F , 3°C
Dew Point: 36°F , 2°C
Humidity: 81%
Barometer: 30.14 inHg , 1020.7 hPa
Clouds: Overcast
Visibility: 10 miles , 16 km
Cloud details: Overcast 1100 ft
2017/12/18 07:53 KPKB 180753Z AUTO 21004KT 10SM OVC011 05/02 A3014 RMK AO2 SLP209 T00500022
KCRW - Charleston, West Virginia, USA
Distance from station: SSE 55mi, 88km
Updated: Mon, 18-Dec-2017 3:17am EST
Overcast
Overcast
 Wind from calm
Wind: Calm
Temperature: 39°F , 4°C
Dew Point: 37°F , 3°C
Humidity: 93%
Barometer: 30.13 inHg , 1020.3 hPa
Clouds: Overcast
Visibility: 10 miles , 16 km
Cloud details: Overcast 1400 ft
2017/12/18 08:17 KCRW 180817Z 00000KT 10SM OVC014 04/03 A3013 RMK AO2 T00440028
 
KHTS - Huntington, West Virginia, USA
Distance from station: SSW 55mi, 89km
Updated: Mon, 18-Dec-2017 3:40am EST
Overcast
Overcast
 Wind from SSW
Wind: SSW 3 mph , 6 km/h
Temperature: 41°F , 5°C
Dew Point: 37°F , 3°C
Humidity: 87%
Barometer: 30.12 inHg , 1020 hPa
Clouds: Overcast
Visibility: 8 miles , 13 km
Cloud details: Partly cloudy 1300 ft
Overcast 2300 ft
2017/12/18 08:40 KHTS 180840Z 20003KT 8SM SCT013 OVC023 05/03 A3012 RMK AO2 T00500028
KLHQ - Lancaster, Ohio, USA
Distance from station: NW 56mi, 91km
Updated: Mon, 18-Dec-2017 2:53am EST
Overcast
Overcast
 Wind from SSW
Wind: SSW 3 mph , 6 km/h
Temperature: 39°F , 4°C
Dew Point: 36°F , 2°C
Humidity: 87%
Barometer: 30.09 inHg , 1019 hPa
Clouds: Overcast
Visibility: 10 miles , 16 km
Cloud details: Overcast 1200 ft
2017/12/18 07:53 KLHQ 180753Z AUTO 21003KT 10SM OVC012 04/02 A3009 RMK AO2 SLP195 T00440022
 
KZZV - Zanesville, Ohio, USA
Distance from station: N 61mi, 99km
Updated: Mon, 18-Dec-2017 2:53am EST
Overcast
Overcast
 Wind from SSW
Wind: SSW 6 mph , 9 km/h
Temperature: 39°F , 4°C
Wind Chill: 35°F , 2°C
Dew Point: 34°F , 1°C
Humidity: 81%
Barometer: 30.09 inHg , 1019 hPa
Clouds: Overcast
Visibility: 10 miles , 16 km
Cloud details: Mostly cloudy 1600 ft
Overcast 4800 ft
2017/12/18 07:53 KZZV 180753Z AUTO 21005KT 10SM BKN016 OVC048 04/01 A3009 RMK AO2 SLP195 T00390006
KLCK - Rickenbacker Ang, Ohio, USA
Distance from station: NW 68mi, 110km
Updated: Mon, 18-Dec-2017 3:35am EST
Overcast
Overcast
 Wind from SSW
Wind: SSW 9 mph , 15 km/h
Temperature: 39°F , 4°C
Wind Chill: 33°F , 1°C
Dew Point: 37°F , 3°C
Humidity: 93%
Barometer: 30.09 inHg , 1019 hPa
Clouds: Overcast
Visibility: 10 miles , 16 km
Cloud details: Overcast 1200 ft
2017/12/18 08:35 KLCK 180835Z AUTO 20008KT 10SM OVC012 04/03 A3009 RMK AO2 T00350029
 
KVTA - Newark, Ohio, USA
Distance from station: NNW 68mi, 110km
Updated: Mon, 18-Dec-2017 2:54am EST
Overcast
Overcast
 Wind from S
Wind: S 5 mph , 7 km/h
Temperature: 36°F , 2°C
Wind Chill: 32°F , 0°C
Dew Point: 32°F , 0°C
Humidity: 87%
Barometer: 30.08 inHg , 1018.6 hPa
Clouds: Overcast
Visibility: 10 miles , 16 km
Cloud details: Overcast 1100 ft
2017/12/18 07:54 KVTA 180754Z AUTO 19004KT 10SM OVC011 02/00 A3008 RMK AO2 SLP191 T00220000